| time (UTC) | temp F | wind direction | speed knots | gust knots | rain 1hr in | rain 24hr in | rain mn in | humidity % | barometer mb |
| 20260509000044 | 56 | 159 | 5.2 | 10.4 | 0.00 | 0.00 | 0.00 | 45 | 1003.3 |
| 20260508234550 | 56 | 105 | 5.2 | 10.4 | 0.00 | 0.00 | 0.00 | 45 | 1003.0 |
| 20260508233104 | 56 | 152 | 5.2 | 10.4 | 0.00 | 0.00 | 0.00 | 45 | 1003.1 |
| 20260508231603 | 57 | 145 | 7.0 | 13.0 | 0.00 | 0.00 | 0.00 | 43 | 1003.0 |
| 20260508230117 | 58 | 101 | 6.1 | 11.3 | 0.00 | 0.00 | 0.00 | 42 | 1003.2 |
| 20260508224621 | 59 | 184 | 3.5 | 9.6 | 0.00 | 0.00 | 0.00 | 39 | 1003.1 |
| 20260508223012 | 60 | 217 | 3.5 | 10.4 | 0.00 | 0.00 | 0.00 | 37 | 1003.4 |
| 20260508221513 | 61 | 156 | 3.5 | 7.8 | 0.00 | 0.00 | 0.00 | 36 | 1003.5 |
| 20260508220027 | 61 | 170 | 4.3 | 8.7 | 0.00 | 0.00 | 0.00 | 36 | 1003.6 |
| 20260508214523 | 61 | 138 | 2.6 | 7.8 | 0.00 | 0.00 | 0.00 | 34 | 1003.7 |
| 20260508213028 | 61 | 217 | 1.7 | 6.1 | 0.00 | 0.00 | 0.00 | 39 | 1004.0 |
| 20260508211550 | 62 | 266 | 0.9 | 6.1 | 0.00 | 0.00 | 0.00 | 36 | 1004.2 |
| 20260508210042 | 62 | 157 | 2.6 | 7.0 | 0.00 | 0.00 | 0.00 | 36 | 1004.1 |
| 20260508204527 | 61 | 281 | 2.6 | 7.0 | 0.00 | 0.00 | 0.00 | 37 | 1004.4 |
| 20260508203032 | 61 | 276 | 1.7 | 7.8 | 0.00 | 0.00 | 0.00 | 31 | 1004.8 |
| 20260508201505 | 60 | 280 | 1.7 | 7.0 | 0.00 | 0.00 | 0.00 | 30 | 1004.9 |
| 20260508200025 | 60 | 244 | 3.5 | 7.8 | 0.00 | 0.00 | 0.00 | 28 | 1005.2 |
| 20260508194617 | 57 | 67 | 0.9 | 2.6 | 0.00 | 0.00 | 0.00 | 32 | 1005.2 |
| 20260508193122 | 57 | 146 | 1.7 | 6.1 | 0.00 | 0.00 | 0.00 | 30 | 1005.6 |
| 20260508191618 | 58 | 134 | 2.6 | 9.6 | 0.00 | 0.00 | 0.00 | 29 | 1005.7 |
| 20260508190011 | 57 | 234 | 1.7 | 10.4 | 0.00 | 0.00 | 0.00 | 41 | 1005.8 |
| 20260508184625 | 58 | 319 | 3.5 | 10.4 | 0.00 | 0.00 | 0.00 | 31 | 1005.9 |
| 20260508183016 | 58 | 311 | 6.1 | 13.9 | 0.00 | 0.00 | 0.00 | 25 | 1006.0 |
| 20260508181515 | 57 | 309 | 4.3 | 10.4 | 0.00 | 0.00 | 0.00 | 27 | 1006.4 |
| 20260508180040 | 56 | 282 | 2.6 | 9.6 | 0.00 | 0.00 | 0.00 | 29 | 1006.8 |
| 20260508174521 | 55 | 290 | 1.7 | 6.1 | 0.00 | 0.00 | 0.00 | 30 | 1006.8 |
| 20260508173041 | 55 | 297 | 3.5 | 10.4 | 0.00 | 0.00 | 0.00 | 30 | 1006.9 |
| 20260508171619 | 54 | 258 | 0.9 | 6.1 | 0.00 | 0.00 | 0.00 | 34 | 1007.0 |
| 20260508170109 | 54 | 292 | 3.5 | 7.0 | 0.00 | 0.00 | 0.00 | 32 | 1007.2 |
| 20260508164616 | 53 | 281 | 2.6 | 7.8 | 0.00 | 0.01 | 0.00 | 35 | 1007.5 |
| 20260508163124 | 52 | 298 | 4.3 | 8.7 | 0.00 | 0.01 | 0.00 | 35 | 1007.6 |
| 20260508161604 | 51 | 238 | 2.6 | 7.0 | 0.00 | 0.01 | 0.00 | 40 | 1007.6 |
| 20260508160104 | 49 | 249 | 0.9 | 7.0 | 0.00 | 0.01 | 0.00 | 42 | 1007.9 |
| 20260508154607 | 49 | 275 | 1.7 | 7.0 | 0.00 | 0.02 | 0.00 | 43 | 1007.9 |
| 20260508153110 | 49 | 80 | 0.9 | 7.0 | 0.00 | 0.02 | 0.00 | 43 | 1007.8 |
| 20260508151618 | 48 | 296 | 2.6 | 7.8 | 0.00 | 0.02 | 0.00 | 43 | 1007.9 |
| 20260508150106 | 47 | 295 | 3.5 | 7.8 | 0.00 | 0.02 | 0.00 | 46 | 1007.9 |
| 20260508144608 | 46 | 260 | 2.6 | 7.8 | 0.00 | 0.02 | 0.00 | 47 | 1008.0 |
| 20260508143121 | 45 | 342 | 2.6 | 5.2 | 0.00 | 0.02 | 0.00 | 48 | 1008.0 |
| 20260508141510 | 44 | 335 | 1.7 | 7.8 | 0.00 | 0.02 | 0.00 | 51 | 1008.1 |
| 20260508140124 | 44 | 252 | 0.9 | 2.6 | 0.00 | 0.02 | 0.00 | 55 | 1008.1 |
| 20260508134622 | 44 | 305 | 1.7 | 4.3 | 0.00 | 0.02 | 0.00 | 54 | 1008.0 |
| 20260508133017 | 43 | 348 | 0.9 | 3.5 | 0.00 | 0.02 | 0.00 | 57 | 1008.1 |
| 20260508131544 | 41 | 61 | 0.0 | 0.0 | 0.00 | 0.02 | 0.00 | 61 | 1008.2 |
| 20260508130106 | 39 | 86 | 0.0 | 0.0 | 0.00 | 0.02 | 0.00 | 66 | 1008.3 |
| 20260508124625 | 37 | 86 | 0.0 | 0.0 | 0.00 | 0.02 | 0.00 | 70 | 1008.2 |
| 20260508123109 | 37 | 86 | 0.0 | 0.9 | 0.00 | 0.02 | 0.00 | 69 | 1008.2 |
| 20260508121550 | 37 | 74 | 0.0 | 0.0 | 0.00 | 0.02 | 0.00 | 69 | 1008.0 |
| 20260508120013 | 37 | 66 | 0.0 | 0.0 | 0.00 | 0.02 | 0.00 | 71 | 1008.0 |
| 20260508114623 | 37 | 56 | 0.0 | 0.0 | 0.00 | 0.02 | 0.00 | 70 | 1007.9 |
| 20260508113128 | 37 | 56 | 0.0 | 0.0 | 0.00 | 0.02 | 0.00 | 71 | 1007.9 |
| 20260508111632 | 37 | 56 | 0.0 | 0.0 | 0.00 | 0.02 | 0.00 | 71 | 1007.9 |
| 20260508110026 | 38 | 25 | 0.0 | 0.0 | 0.00 | 0.02 | 0.00 | 69 | 1007.9 |
| 20260508104622 | 38 | 25 | 0.0 | 0.0 | 0.00 | 0.02 | 0.00 | 69 | 1007.9 |
| 20260508103035 | 38 | 25 | 0.0 | 0.0 | 0.00 | 0.02 | 0.00 | 70 | 1008.0 |
| 20260508101610 | 38 | 21 | 0.0 | 0.0 | 0.00 | 0.02 | 0.00 | 69 | 1008.2 |
| 20260508100131 | 38 | 21 | 0.0 | 0.0 | 0.00 | 0.02 | 0.00 | 69 | 1008.4 |
| 20260508094524 | 39 | 21 | 0.0 | 0.0 | 0.00 | 0.02 | 0.00 | 68 | 1008.4 |
| 20260508093056 | 40 | 328 | 0.0 | 0.0 | 0.00 | 0.02 | 0.00 | 67 | 1008.5 |
| 20260508091616 | 40 | 340 | 0.0 | 0.0 | 0.00 | 0.02 | 0.00 | 65 | 1008.8 |
| 20260508090056 | 41 | 340 | 0.0 | 0.0 | 0.00 | 0.02 | 0.00 | 64 | 1009.0 |
| 20260508084540 | 40 | 330 | 0.0 | 0.9 | 0.00 | 0.02 | 0.00 | 65 | 1009.1 |
| 20260508083028 | 40 | 330 | 0.9 | 2.6 | 0.00 | 0.02 | 0.00 | 63 | 1009.2 |
| 20260508081520 | 40 | 261 | 0.0 | 0.0 | 0.00 | 0.02 | 0.00 | 62 | 1009.6 |
| 20260508080040 | 40 | 261 | 0.9 | 2.6 | 0.00 | 0.02 | 0.00 | 62 | 1009.6 |
| 20260508074621 | 40 | 27 | 1.7 | 5.2 | 0.00 | 0.02 | 0.00 | 62 | 1009.7 |
| 20260508073123 | 41 | 360 | 0.0 | 0.0 | 0.00 | 0.02 | 0.00 | 61 | 1009.9 |
| 20260508071619 | 41 | 360 | 0.0 | 0.0 | 0.00 | 0.02 | 0.00 | 61 | 1010.2 |
| 20260508070012 | 42 | 360 | 0.0 | 1.7 | 0.00 | 0.02 | 0.00 | 60 | 1010.5 |
| 20260508064619 | 41 | 317 | 0.0 | 1.7 | 0.00 | 0.02 | 0.00 | 61 | 1010.7 |
| 20260508063119 | 42 | 317 | 0.0 | 2.6 | 0.00 | 0.02 | 0.00 | 61 | 1010.9 |
| 20260508061607 | 42 | 315 | 1.7 | 6.1 | 0.00 | 0.02 | 0.00 | 59 | 1011.1 |
| 20260508060132 | 42 | 313 | 0.0 | 3.5 | 0.00 | 0.02 | 0.00 | 57 | 1011.1 |
| 20260508054643 | 42 | 326 | 1.7 | 3.5 | 0.00 | 0.02 | 0.02 | 56 | 1011.3 |
| 20260508053016 | 43 | 308 | 0.9 | 7.8 | 0.00 | 0.02 | 0.02 | 53 | 1011.3 |
| 20260508051630 | 43 | 300 | 0.0 | 1.7 | 0.00 | 0.02 | 0.02 | 54 | 1011.5 |
| 20260508050041 | 44 | 300 | 0.9 | 4.3 | 0.00 | 0.02 | 0.02 | 54 | 1011.8 |
| 20260508044524 | 44 | 5 | 0.0 | 4.3 | 0.00 | 0.02 | 0.02 | 53 | 1011.9 |
| 20260508043042 | 44 | 318 | 0.0 | 2.6 | 0.00 | 0.02 | 0.02 | 52 | 1012.1 |
| 20260508041526 | 44 | 325 | 0.0 | 1.7 | 0.00 | 0.02 | 0.02 | 50 | 1012.3 |
| 20260508040055 | 45 | 325 | 0.9 | 5.2 | 0.00 | 0.02 | 0.02 | 49 | 1012.6 |
| 20260508034606 | 45 | 319 | 0.9 | 3.5 | 0.00 | 0.02 | 0.02 | 49 | 1012.8 |
| 20260508033120 | 45 | 319 | 0.0 | 5.2 | 0.00 | 0.02 | 0.02 | 49 | 1012.6 |
| 20260508031511 | 45 | 319 | 1.7 | 2.6 | 0.00 | 0.02 | 0.02 | 47 | 1012.5 |
| 20260508030134 | 45 | 319 | 1.7 | 4.3 | 0.00 | 0.02 | 0.02 | 45 | 1012.2 |
| 20260508024502 | 46 | 62 | 0.9 | 3.5 | 0.00 | 0.02 | 0.02 | 44 | 1012.1 |
| 20260508023046 | 46 | 298 | 0.9 | 2.6 | 0.00 | 0.02 | 0.02 | 42 | 1012.2 |
| 20260508021536 | 46 | 270 | 1.7 | 2.6 | 0.00 | 0.02 | 0.02 | 44 | 1012.2 |
| 20260508020015 | 47 | 270 | 0.0 | 0.9 | 0.00 | 0.02 | 0.02 | 40 | 1012.2 |
| 20260508014629 | 48 | 270 | 0.0 | 2.6 | 0.00 | 0.02 | 0.02 | 42 | 1012.3 |
| 20260508013126 | 48 | 270 | 0.0 | 8.7 | 0.00 | 0.02 | 0.02 | 40 | 1012.2 |
| 20260508011629 | 49 | 236 | 0.9 | 10.4 | 0.00 | 0.02 | 0.02 | 38 | 1012.3 |
| 20260508010044 | 50 | 313 | 4.3 | 8.7 | 0.00 | 0.02 | 0.02 | 34 | 1012.4 |
| 20260508004526 | 52 | 289 | 4.3 | 10.4 | 0.00 | 0.04 | 0.02 | 32 | 1012.3 |
| 20260508003024 | 53 | 281 | 2.6 | 8.7 | 0.00 | 0.04 | 0.02 | 34 | 1012.2 |
| 20260508001537 | 54 | 298 | 2.6 | 7.8 | 0.00 | 0.04 | 0.02 | 32 | 1012.4 |
| 20260508000129 | 51 | 259 | 3.5 | 11.3 | 0.00 | 0.04 | 0.02 | 36 | 1012.5 |